JIA5473 KBNA-KCLT
Flight info
| Callsign | JIA5473 |
|---|---|
| Flight time | 0h 47m |
| Altitude | 31000 |
| Route | TAZMO4 BURME COMDY FILPZ4 |
| Aircraft | CRJ9/M-SDFGIRWY/S |
Departure
| Time | 2026-05-06 18:31 |
|---|---|
| Airport | Nashville International Airport (KBNA) |
Arrival
| Time | 2026-05-06 19:18 |
|---|---|
| Airport | Charlotte Douglas International Airport (KCLT) |
| Time | Latitude | Longitude | Altitude | Speed | Heading |
|---|---|---|---|---|---|
| 2026-05-06 18:13 | 33.94467 | -81.12447 | 239 ft | 0 kts | 313° |
| 2026-05-06 18:14 | 36.13473 | -86.66962 | 603 ft | 0 kts | 129° |
| 2026-05-06 18:19 | 36.13473 | -86.66961 | 603 ft | 0 kts | 129° |
| 2026-05-06 18:20 | 36.13473 | -86.66962 | 603 ft | 1 kts | 129° |
| 2026-05-06 18:20 | 36.13483 | -86.66975 | 603 ft | 2 kts | 129° |
| 2026-05-06 18:20 | 36.13492 | -86.66990 | 603 ft | 2 kts | 129° |
| 2026-05-06 18:20 | 36.13502 | -86.67004 | 603 ft | 2 kts | 129° |
| 2026-05-06 18:21 | 36.13513 | -86.67016 | 603 ft | 2 kts | 146° |
| 2026-05-06 18:21 | 36.13526 | -86.67024 | 603 ft | 2 kts | 162° |
| 2026-05-06 18:21 | 36.13541 | -86.67027 | 603 ft | 2 kts | 178° |
| 2026-05-06 18:21 | 36.13554 | -86.67026 | 603 ft | 0 kts | 192° |
| 2026-05-06 18:22 | 36.13556 | -86.67025 | 603 ft | 0 kts | 192° |
| 2026-05-06 18:24 | 36.13533 | -86.67034 | 603 ft | 6 kts | 200° |
| 2026-05-06 18:24 | 36.13500 | -86.67052 | 603 ft | 3 kts | 200° |
| 2026-05-06 18:24 | 36.13456 | -86.67081 | 603 ft | 10 kts | 232° |
| 2026-05-06 18:25 | 36.13456 | -86.67186 | 603 ft | 16 kts | 290° |
| 2026-05-06 18:25 | 36.13502 | -86.67360 | 603 ft | 21 kts | 287° |
| 2026-05-06 18:25 | 36.13541 | -86.67522 | 603 ft | 18 kts | 286° |
| 2026-05-06 18:25 | 36.13575 | -86.67660 | 603 ft | 15 kts | 287° |
| 2026-05-06 18:26 | 36.13561 | -86.67760 | 603 ft | 10 kts | 194° |
| 2026-05-06 18:26 | 36.13451 | -86.67802 | 603 ft | 22 kts | 197° |
| 2026-05-06 18:26 | 36.13300 | -86.67862 | 603 ft | 22 kts | 198° |
| 2026-05-06 18:26 | 36.13150 | -86.67921 | 603 ft | 24 kts | 197° |
| 2026-05-06 18:27 | 36.12983 | -86.67985 | 603 ft | 25 kts | 197° |
| 2026-05-06 18:27 | 36.12816 | -86.68050 | 603 ft | 25 kts | 196° |
| 2026-05-06 18:27 | 36.12647 | -86.68112 | 603 ft | 25 kts | 197° |
| 2026-05-06 18:27 | 36.12481 | -86.68172 | 603 ft | 25 kts | 196° |
| 2026-05-06 18:28 | 36.12313 | -86.68232 | 603 ft | 25 kts | 196° |
| 2026-05-06 18:28 | 36.12143 | -86.68294 | 603 ft | 25 kts | 196° |
| 2026-05-06 18:28 | 36.11974 | -86.68354 | 603 ft | 25 kts | 195° |
| 2026-05-06 18:28 | 36.11813 | -86.68408 | 603 ft | 16 kts | 197° |
| 2026-05-06 18:29 | 36.11735 | -86.68450 | 603 ft | 8 kts | 245° |
| 2026-05-06 18:29 | 36.11746 | -86.68516 | 603 ft | 8 kts | 284° |
| 2026-05-06 18:29 | 36.11769 | -86.68613 | 603 ft | 10 kts | 289° |
| 2026-05-06 18:29 | 36.11786 | -86.68642 | 603 ft | 2 kts | 6° |
| 2026-05-06 18:30 | 36.11808 | -86.68633 | 603 ft | 17 kts | 17° |
| 2026-05-06 18:30 | 36.12206 | -86.68479 | 603 ft | 99 kts | 17° |
| 2026-05-06 18:30 | 36.13071 | -86.68125 | 606 ft | 158 kts | 17° |
| 2026-05-06 18:30 | 36.14185 | -86.67709 | 999 ft | 171 kts | 14° |
| 2026-05-06 18:31 | 36.15334 | -86.67263 | 1639 ft | 176 kts | 17° |
| 2026-05-06 18:31 | 36.16381 | -86.66509 | 2293 ft | 186 kts | 46° |
| 2026-05-06 18:31 | 36.17141 | -86.65088 | 2677 ft | 207 kts | 54° |
| 2026-05-06 18:31 | 36.17970 | -86.63551 | 3213 ft | 220 kts | 53° |
| 2026-05-06 18:32 | 36.18836 | -86.61992 | 3889 ft | 227 kts | 53° |
| 2026-05-06 18:32 | 36.19756 | -86.60370 | 4685 ft | 232 kts | 52° |
| 2026-05-06 18:32 | 36.20702 | -86.58709 | 5265 ft | 250 kts | 52° |
| 2026-05-06 18:32 | 36.21750 | -86.56880 | 5742 ft | 270 kts | 53° |
| 2026-05-06 18:33 | 36.22432 | -86.54700 | 6398 ft | 281 kts | 88° |
| 2026-05-06 18:33 | 36.22095 | -86.52355 | 7093 ft | 282 kts | 113° |
| 2026-05-06 18:33 | 36.21466 | -86.50028 | 7900 ft | 287 kts | 112° |
| 2026-05-06 18:33 | 36.20864 | -86.47680 | 8658 ft | 293 kts | 111° |
| 2026-05-06 18:34 | 36.20262 | -86.45279 | 9400 ft | 298 kts | 111° |
| 2026-05-06 18:34 | 36.19618 | -86.42802 | 10080 ft | 305 kts | 114° |
| 2026-05-06 18:34 | 36.18792 | -86.40414 | 10836 ft | 306 kts | 118° |
| 2026-05-06 18:34 | 36.17919 | -86.37962 | 11527 ft | 313 kts | 119° |
| 2026-05-06 18:35 | 36.17052 | -86.35503 | 12221 ft | 317 kts | 118° |
| 2026-05-06 18:35 | 36.16168 | -86.33006 | 12821 ft | 324 kts | 119° |
| 2026-05-06 18:35 | 36.15248 | -86.30415 | 13482 ft | 328 kts | 120° |
| 2026-05-06 18:35 | 36.14335 | -86.27824 | 14069 ft | 335 kts | 120° |
| 2026-05-06 18:36 | 36.13346 | -86.25072 | 14127 ft | 362 kts | 120° |
| 2026-05-06 18:36 | 36.12317 | -86.22162 | 14245 ft | 382 kts | 120° |
| 2026-05-06 18:36 | 36.11233 | -86.19099 | 14559 ft | 395 kts | 120° |
| 2026-05-06 18:36 | 36.10130 | -86.15979 | 15056 ft | 400 kts | 120° |
| 2026-05-06 18:37 | 36.08998 | -86.12809 | 15495 ft | 408 kts | 119° |
| 2026-05-06 18:37 | 36.08229 | -86.10629 | 15882 ft | 410 kts | 119° |
| 2026-05-06 18:37 | 36.07001 | -86.06139 | 16363 ft | 430 kts | 101° |
| 2026-05-06 18:37 | 36.06729 | -86.02438 | 16918 ft | 434 kts | 97° |
| 2026-05-06 18:38 | 36.06499 | -85.98730 | 17412 ft | 438 kts | 97° |
| 2026-05-06 18:38 | 36.06245 | -85.94992 | 17888 ft | 443 kts | 98° |
| 2026-05-06 18:38 | 36.05983 | -85.91162 | 18321 ft | 449 kts | 97° |
| 2026-05-06 18:38 | 36.05720 | -85.87361 | 18900 ft | 450 kts | 98° |
| 2026-05-06 18:39 | 36.05448 | -85.83455 | 19397 ft | 454 kts | 98° |
| 2026-05-06 18:39 | 36.05166 | -85.79594 | 19856 ft | 458 kts | 97° |
| 2026-05-06 18:39 | 36.05102 | -85.75644 | 20348 ft | 461 kts | 93° |
| 2026-05-06 18:40 | 36.04409 | -85.67794 | 21308 ft | 465 kts | 98° |
| 2026-05-06 18:40 | 36.04086 | -85.63783 | 21759 ft | 469 kts | 97° |
| 2026-05-06 18:40 | 36.03789 | -85.59759 | 22227 ft | 473 kts | 97° |
| 2026-05-06 18:40 | 36.03492 | -85.55698 | 22670 ft | 477 kts | 97° |
| 2026-05-06 18:41 | 36.03197 | -85.51643 | 23122 ft | 481 kts | 97° |
| 2026-05-06 18:41 | 36.02908 | -85.47519 | 23659 ft | 482 kts | 97° |
| 2026-05-06 18:41 | 36.02610 | -85.43359 | 24125 ft | 486 kts | 98° |
| 2026-05-06 18:41 | 36.02309 | -85.39217 | 24517 ft | 491 kts | 98° |
| 2026-05-06 18:42 | 36.01997 | -85.35003 | 25033 ft | 493 kts | 98° |
| 2026-05-06 18:42 | 36.01696 | -85.30815 | 25533 ft | 495 kts | 98° |
| 2026-05-06 18:42 | 36.01374 | -85.26550 | 25845 ft | 501 kts | 98° |
| 2026-05-06 18:42 | 36.01066 | -85.22269 | 26362 ft | 502 kts | 98° |
| 2026-05-06 18:43 | 36.00747 | -85.17954 | 26799 ft | 505 kts | 98° |
| 2026-05-06 18:43 | 36.00422 | -85.13652 | 27266 ft | 507 kts | 98° |
| 2026-05-06 18:43 | 36.00092 | -85.09286 | 27618 ft | 513 kts | 98° |
| 2026-05-06 18:43 | 35.99757 | -85.04909 | 28048 ft | 515 kts | 100° |
| 2026-05-06 18:44 | 35.99192 | -85.00584 | 28448 ft | 518 kts | 98° |
| 2026-05-06 18:44 | 35.99085 | -84.96134 | 28892 ft | 521 kts | 95° |
| 2026-05-06 18:44 | 35.98910 | -84.91648 | 29250 ft | 524 kts | 96° |
| 2026-05-06 18:44 | 35.98687 | -84.87198 | 29634 ft | 527 kts | 97° |
| 2026-05-06 18:45 | 35.98418 | -84.82622 | 29874 ft | 532 kts | 97° |
| 2026-05-06 18:45 | 35.98143 | -84.78075 | 30166 ft | 536 kts | 97° |
| 2026-05-06 18:45 | 35.97870 | -84.73517 | 30406 ft | 539 kts | 97° |
| 2026-05-06 18:45 | 35.97675 | -84.70461 | 30581 ft | 541 kts | 97° |
| 2026-05-06 18:46 | 35.97295 | -84.64300 | 30963 ft | 544 kts | 96° |
| 2026-05-06 18:46 | 35.96704 | -84.54932 | 30964 ft | 551 kts | 96° |
| 2026-05-06 18:47 | 35.96100 | -84.45439 | 30951 ft | 559 kts | 96° |
| 2026-05-06 18:47 | 35.95484 | -84.35889 | 30955 ft | 558 kts | 96° |
| 2026-05-06 18:48 | 35.94864 | -84.26378 | 30931 ft | 555 kts | 97° |
| 2026-05-06 18:48 | 35.94244 | -84.16935 | 30934 ft | 554 kts | 96° |
| 2026-05-06 18:49 | 35.93610 | -84.07463 | 30947 ft | 552 kts | 97° |
| 2026-05-06 18:49 | 35.92969 | -83.98031 | 30954 ft | 552 kts | 97° |
| 2026-05-06 18:50 | 35.92324 | -83.88641 | 30955 ft | 552 kts | 96° |
| 2026-05-06 18:50 | 35.91678 | -83.79253 | 30957 ft | 551 kts | 97° |
| 2026-05-06 18:51 | 35.91022 | -83.69879 | 30968 ft | 551 kts | 97° |
| 2026-05-06 18:51 | 35.90351 | -83.60420 | 30964 ft | 557 kts | 96° |
| 2026-05-06 18:52 | 35.89668 | -83.50890 | 30979 ft | 561 kts | 96° |
| 2026-05-06 18:52 | 35.88255 | -83.41610 | 31000 ft | 548 kts | 109° |
| 2026-05-06 18:53 | 35.86227 | -83.32587 | 30959 ft | 547 kts | 109° |
| 2026-05-06 18:53 | 35.84230 | -83.23590 | 30958 ft | 545 kts | 109° |
| 2026-05-06 18:54 | 35.82234 | -83.14702 | 30698 ft | 523 kts | 108° |
| 2026-05-06 18:54 | 35.81305 | -83.10461 | 30103 ft | 513 kts | 109° |
| 2026-05-06 18:54 | 35.80366 | -83.06239 | 29313 ft | 508 kts | 109° |
| 2026-05-06 18:54 | 35.79438 | -83.02098 | 28619 ft | 502 kts | 109° |
| 2026-05-06 18:55 | 35.78532 | -82.98015 | 27987 ft | 494 kts | 109° |
| 2026-05-06 18:55 | 35.77634 | -82.94016 | 27417 ft | 485 kts | 109° |
| 2026-05-06 18:55 | 35.76737 | -82.90004 | 26765 ft | 478 kts | 109° |
| 2026-05-06 18:55 | 35.75878 | -82.86149 | 26134 ft | 471 kts | 109° |
| 2026-05-06 18:56 | 35.75004 | -82.82262 | 25337 ft | 468 kts | 109° |
| 2026-05-06 18:56 | 35.74152 | -82.78490 | 24939 ft | 453 kts | 108° |
| 2026-05-06 18:56 | 35.73338 | -82.74843 | 24968 ft | 441 kts | 108° |
| 2026-05-06 18:56 | 35.72504 | -82.71152 | 24985 ft | 449 kts | 108° |
| 2026-05-06 18:57 | 35.71653 | -82.67403 | 25020 ft | 460 kts | 108° |
| 2026-05-06 18:57 | 35.70785 | -82.63605 | 25025 ft | 469 kts | 108° |
| 2026-05-06 18:57 | 35.69904 | -82.59746 | 25023 ft | 477 kts | 108° |
| 2026-05-06 18:57 | 35.69009 | -82.55789 | 25024 ft | 481 kts | 108° |
| 2026-05-06 18:58 | 35.68120 | -82.51917 | 24943 ft | 459 kts | 108° |
| 2026-05-06 18:58 | 35.67278 | -82.48206 | 24257 ft | 454 kts | 108° |
| 2026-05-06 18:58 | 35.66418 | -82.44469 | 23522 ft | 449 kts | 108° |
| 2026-05-06 18:58 | 35.65582 | -82.40845 | 22883 ft | 442 kts | 108° |
| 2026-05-06 18:59 | 35.64751 | -82.37222 | 22129 ft | 439 kts | 108° |
| 2026-05-06 18:59 | 35.63922 | -82.33635 | 21438 ft | 434 kts | 108° |
| 2026-05-06 18:59 | 35.63107 | -82.30097 | 20682 ft | 431 kts | 108° |
| 2026-05-06 18:59 | 35.62299 | -82.26605 | 19926 ft | 427 kts | 108° |
| 2026-05-06 19:00 | 35.61492 | -82.23109 | 19188 ft | 423 kts | 108° |
| 2026-05-06 19:00 | 35.60704 | -82.19724 | 18999 ft | 401 kts | 108° |
| 2026-05-06 19:00 | 35.59964 | -82.16517 | 18626 ft | 391 kts | 108° |
| 2026-05-06 19:00 | 35.59460 | -82.14359 | 17747 ft | 404 kts | 108° |
| 2026-05-06 19:01 | 35.58424 | -82.09909 | 16441 ft | 410 kts | 108° |
| 2026-05-06 19:01 | 35.57651 | -82.06584 | 15952 ft | 401 kts | 108° |
| 2026-05-06 19:01 | 35.57006 | -82.03242 | 15957 ft | 397 kts | 104° |
| 2026-05-06 19:01 | 35.56424 | -82.00011 | 15958 ft | 389 kts | 104° |
| 2026-05-06 19:02 | 35.55844 | -81.96790 | 15950 ft | 384 kts | 104° |
| 2026-05-06 19:02 | 35.55272 | -81.93607 | 15907 ft | 371 kts | 104° |
| 2026-05-06 19:02 | 35.54713 | -81.90550 | 15241 ft | 372 kts | 104° |
| 2026-05-06 19:02 | 35.54151 | -81.87465 | 14601 ft | 372 kts | 103° |
| 2026-05-06 19:03 | 35.53588 | -81.84383 | 13998 ft | 369 kts | 104° |
| 2026-05-06 19:03 | 35.53034 | -81.81321 | 13448 ft | 365 kts | 101° |
| 2026-05-06 19:03 | 35.53851 | -81.78585 | 11708 ft | 386 kts | 38° |
| 2026-05-06 19:03 | 35.55406 | -81.75854 | 12064 ft | 387 kts | 62° |
| 2026-05-06 19:04 | 35.55986 | -81.72739 | 12071 ft | 367 kts | 88° |
| 2026-05-06 19:04 | 35.55555 | -81.69743 | 11684 ft | 352 kts | 112° |
| 2026-05-06 19:04 | 35.54424 | -81.67174 | 11162 ft | 341 kts | 129° |
| 2026-05-06 19:04 | 35.52997 | -81.64905 | 10953 ft | 330 kts | 135° |
| 2026-05-06 19:05 | 35.51535 | -81.62817 | 10896 ft | 316 kts | 137° |
| 2026-05-06 19:05 | 35.50077 | -81.60830 | 10358 ft | 319 kts | 131° |
| 2026-05-06 19:05 | 35.49245 | -81.58319 | 9927 ft | 320 kts | 97° |
| 2026-05-06 19:05 | 35.49348 | -81.55649 | 9605 ft | 314 kts | 80° |
| 2026-05-06 19:06 | 35.49626 | -81.52974 | 9457 ft | 312 kts | 80° |
| 2026-05-06 19:06 | 35.49892 | -81.50388 | 9306 ft | 306 kts | 81° |
| 2026-05-06 19:06 | 35.50153 | -81.47822 | 8901 ft | 304 kts | 81° |
| 2026-05-06 19:06 | 35.50408 | -81.45268 | 8486 ft | 301 kts | 81° |
| 2026-05-06 19:07 | 35.50660 | -81.42699 | 8214 ft | 304 kts | 82° |
| 2026-05-06 19:07 | 35.50825 | -81.41017 | 8164 ft | 300 kts | 82° |
| 2026-05-06 19:07 | 35.51149 | -81.37673 | 7761 ft | 294 kts | 82° |
| 2026-05-06 19:07 | 35.51393 | -81.35185 | 7334 ft | 293 kts | 82° |
| 2026-05-06 19:08 | 35.51635 | -81.32723 | 6980 ft | 288 kts | 83° |
| 2026-05-06 19:08 | 35.51869 | -81.30257 | 6964 ft | 295 kts | 83° |
| 2026-05-06 19:08 | 35.52110 | -81.27698 | 6973 ft | 308 kts | 83° |
| 2026-05-06 19:08 | 35.52357 | -81.25140 | 6954 ft | 296 kts | 83° |
| 2026-05-06 19:09 | 35.52591 | -81.22682 | 6917 ft | 284 kts | 83° |
| 2026-05-06 19:09 | 35.52825 | -81.20238 | 6959 ft | 294 kts | 83° |
| 2026-05-06 19:09 | 35.53090 | -81.17762 | 6949 ft | 292 kts | 82° |
| 2026-05-06 19:09 | 35.53337 | -81.15326 | 6522 ft | 289 kts | 90° |
| 2026-05-06 19:10 | 35.52976 | -81.12871 | 6235 ft | 292 kts | 106° |
| 2026-05-06 19:10 | 35.52509 | -81.10459 | 6235 ft | 289 kts | 106° |
| 2026-05-06 19:10 | 35.52044 | -81.08065 | 6167 ft | 287 kts | 106° |
| 2026-05-06 19:10 | 35.51594 | -81.05707 | 6058 ft | 277 kts | 106° |
| 2026-05-06 19:11 | 35.51166 | -81.03462 | 6013 ft | 264 kts | 106° |
| 2026-05-06 19:11 | 35.50722 | -81.01326 | 5899 ft | 255 kts | 116° |
| 2026-05-06 19:11 | 35.49922 | -80.99455 | 5929 ft | 251 kts | 114° |
| 2026-05-06 19:11 | 35.49661 | -80.97352 | 5959 ft | 245 kts | 105° |
| 2026-05-06 19:12 | 35.48885 | -80.95615 | 5515 ft | 229 kts | 146° |
| 2026-05-06 19:12 | 35.47489 | -80.94959 | 5041 ft | 213 kts | 188° |
| 2026-05-06 19:12 | 35.46019 | -80.95136 | 5000 ft | 213 kts | 190° |
| 2026-05-06 19:12 | 35.44581 | -80.95195 | 4969 ft | 197 kts | 187° |
| 2026-05-06 19:13 | 35.43166 | -80.95197 | 4746 ft | 206 kts | 186° |
| 2026-05-06 19:13 | 35.41781 | -80.95158 | 4530 ft | 188 kts | 184° |
| 2026-05-06 19:13 | 35.40510 | -80.95088 | 4295 ft | 181 kts | 184° |
| 2026-05-06 19:13 | 35.39270 | -80.95012 | 4043 ft | 177 kts | 183° |
| 2026-05-06 19:14 | 35.38040 | -80.94924 | 3790 ft | 176 kts | 183° |
| 2026-05-06 19:14 | 35.36811 | -80.94833 | 3554 ft | 177 kts | 182° |
| 2026-05-06 19:14 | 35.35617 | -80.94733 | 3328 ft | 165 kts | 182° |
| 2026-05-06 19:14 | 35.34509 | -80.94639 | 3077 ft | 154 kts | 182° |
| 2026-05-06 19:15 | 35.33446 | -80.94551 | 2852 ft | 152 kts | 181° |
| 2026-05-06 19:15 | 35.32404 | -80.94466 | 2658 ft | 147 kts | 181° |
| 2026-05-06 19:15 | 35.31381 | -80.94380 | 2454 ft | 145 kts | 180° |
| 2026-05-06 19:15 | 35.30388 | -80.94295 | 2275 ft | 142 kts | 180° |
| 2026-05-06 19:16 | 35.29426 | -80.94212 | 2068 ft | 134 kts | 179° |
| 2026-05-06 19:16 | 35.28481 | -80.94132 | 1911 ft | 142 kts | 179° |
| 2026-05-06 19:16 | 35.27478 | -80.94047 | 1742 ft | 146 kts | 178° |
| 2026-05-06 19:16 | 35.26428 | -80.93955 | 1553 ft | 156 kts | 178° |
| 2026-05-06 19:17 | 35.25330 | -80.93861 | 1335 ft | 154 kts | 178° |
| 2026-05-06 19:17 | 35.24290 | -80.93770 | 1118 ft | 146 kts | 178° |
| 2026-05-06 19:17 | 35.23271 | -80.93684 | 930 ft | 148 kts | 177° |
| 2026-05-06 19:17 | 35.22257 | -80.93597 | 745 ft | 143 kts | 176° |
| 2026-05-06 19:18 | 35.21398 | -80.93526 | 727 ft | 78 kts | 176° |
| 2026-05-06 19:18 | 35.20986 | -80.93487 | 719 ft | 42 kts | 175° |
| 2026-05-06 19:18 | 35.20707 | -80.93466 | 712 ft | 35 kts | 178° |
| 2026-05-06 19:18 | 35.20587 | -80.93482 | 712 ft | 7 kts | 230° |
| 2026-05-06 19:19 | 35.20547 | -80.93510 | 713 ft | 6 kts | 206° |
| 2026-05-06 19:19 | 35.20507 | -80.93542 | 713 ft | 4 kts | 259° |
| 2026-05-06 19:19 | 35.20540 | -80.93585 | 713 ft | 8 kts | 351° |
| 2026-05-06 19:19 | 35.20603 | -80.93589 | 714 ft | 12 kts | 357° |
| 2026-05-06 19:20 | 35.20719 | -80.93599 | 714 ft | 17 kts | 355° |
| 2026-05-06 19:20 | 35.20842 | -80.93610 | 716 ft | 17 kts | 355° |
| 2026-05-06 19:20 | 35.20958 | -80.93621 | 718 ft | 16 kts | 356° |
| 2026-05-06 19:20 | 35.21068 | -80.93630 | 720 ft | 15 kts | 356° |
| 2026-05-06 19:21 | 35.21140 | -80.93636 | 722 ft | 14 kts | 356° |
| 2026-05-06 19:21 | 35.21186 | -80.93639 | 723 ft | 14 kts | 356° |
| 2026-05-06 19:21 | 35.21326 | -80.93652 | 725 ft | 20 kts | 356° |
| 2026-05-06 19:22 | 35.21466 | -80.93664 | 728 ft | 19 kts | 355° |
| 2026-05-06 19:22 | 35.21576 | -80.93690 | 728 ft | 13 kts | 320° |
| 2026-05-06 19:22 | 35.21641 | -80.93783 | 726 ft | 15 kts | 309° |
| 2026-05-06 19:22 | 35.21718 | -80.93885 | 726 ft | 16 kts | 316° |
| 2026-05-06 19:23 | 35.21800 | -80.93977 | 725 ft | 13 kts | 338° |
| 2026-05-06 19:23 | 35.21887 | -80.93958 | 726 ft | 12 kts | 44° |
| 2026-05-06 19:23 | 35.21944 | -80.93882 | 728 ft | 11 kts | 47° |
| 2026-05-06 19:23 | 35.21994 | -80.93817 | 729 ft | 4 kts | 38° |
| 2026-05-06 19:24 | 35.22044 | -80.93811 | 730 ft | 9 kts | 356° |
| 2026-05-06 19:24 | 35.22107 | -80.93813 | 731 ft | 11 kts | 358° |
| 2026-05-06 19:24 | 35.22199 | -80.93825 | 732 ft | 9 kts | 334° |
| 2026-05-06 19:24 | 35.22220 | -80.93874 | 731 ft | 6 kts | 267° |
| 2026-05-06 19:25 | 35.22219 | -80.93931 | 729 ft | 5 kts | 283° |
| 2026-05-06 19:25 | 35.22236 | -80.93948 | 729 ft | 1 kts | 6° |
| 2026-05-06 19:25 | 35.22257 | -80.93948 | 729 ft | 3 kts | 358° |
| 2026-05-06 19:25 | 35.22261 | -80.93948 | 729 ft | 0 kts | 359° |